sensor_id;sensor_type;location;lat;lon;timestamp;P1;durP1;ratioP1;P2;durP2;ratioP2
18114;SDS011;9184;54.390;18.620;2023-02-28T00:00:03;157.05;;;72.43;;
18114;SDS011;9184;54.390;18.620;2023-02-28T00:00:39;140.95;;;70.78;;
18114;SDS011;9184;54.390;18.620;2023-02-28T00:01:09;141.60;;;69.70;;
18114;SDS011;9184;54.390;18.620;2023-02-28T00:01:41;142.13;;;73.25;;
18114;SDS011;9184;54.390;18.620;2023-02-28T00:02:11;139.67;;;72.03;;
18114;SDS011;9184;54.390;18.620;2023-02-28T00:02:42;147.73;;;72.70;;
18114;SDS011;9184;54.390;18.620;2023-02-28T00:03:14;142.25;;;70.50;;
18114;SDS011;9184;54.390;18.620;2023-02-28T00:03:46;148.63;;;70.77;;
18114;SDS011;9184;54.390;18.620;2023-02-28T00:04:16;152.00;;;72.97;;
18114;SDS011;9184;54.390;18.620;2023-02-28T00:04:48;144.30;;;73.30;;
18114;SDS011;9184;54.390;18.620;2023-02-28T00:05:23;149.38;;;72.28;;
18114;SDS011;9184;54.390;18.620;2023-02-28T00:05:54;149.55;;;72.72;;
18114;SDS011;9184;54.390;18.620;2023-02-28T00:06:25;147.13;;;72.60;;
18114;SDS011;9184;54.390;18.620;2023-02-28T00:06:56;147.82;;;73.65;;
18114;SDS011;9184;54.390;18.620;2023-02-28T00:07:26;141.83;;;75.10;;
18114;SDS011;9184;54.390;18.620;2023-02-28T00:07:57;159.43;;;75.50;;
18114;SDS011;9184;54.390;18.620;2023-02-28T00:08:28;144.10;;;72.00;;
18114;SDS011;9184;54.390;18.620;2023-02-28T00:08:59;153.00;;;72.63;;
18114;SDS011;9184;54.390;18.620;2023-02-28T00:09:30;152.17;;;75.47;;
18114;SDS011;9184;54.390;18.620;2023-02-28T00:10:00;157.33;;;75.67;;
18114;SDS011;9184;54.390;18.620;2023-02-28T00:10:32;151.88;;;75.47;;
18114;SDS011;9184;54.390;18.620;2023-02-28T00:11:04;145.33;;;74.20;;
18114;SDS011;9184;54.390;18.620;2023-02-28T00:11:34;160.50;;;78.03;;
18114;SDS011;9184;54.390;18.620;2023-02-28T00:12:07;167.20;;;78.85;;
18114;SDS011;9184;54.390;18.620;2023-02-28T00:12:40;162.65;;;79.05;;
18114;SDS011;9184;54.390;18.620;2023-02-28T00:13:11;159.43;;;80.97;;
18114;SDS011;9184;54.390;18.620;2023-02-28T00:13:43;164.65;;;83.05;;
18114;SDS011;9184;54.390;18.620;2023-02-28T00:14:16;165.18;;;82.75;;
18114;SDS011;9184;54.390;18.620;2023-02-28T00:14:48;165.23;;;86.47;;
18114;SDS011;9184;54.390;18.620;2023-02-28T00:15:18;163.37;;;86.77;;
18114;SDS011;9184;54.390;18.620;2023-02-28T00:15:57;174.93;;;91.97;;
18114;SDS011;9184;54.390;18.620;2023-02-28T00:16:29;177.50;;;92.43;;
18114;SDS011;9184;54.390;18.620;2023-02-28T00:17:00;179.97;;;95.57;;
18114;SDS011;9184;54.390;18.620;2023-02-28T00:17:31;170.57;;;91.50;;
18114;SDS011;9184;54.390;18.620;2023-02-28T00:18:02;182.93;;;97.67;;
18114;SDS011;9184;54.390;18.620;2023-02-28T00:18:33;183.27;;;100.05;;
18114;SDS011;9184;54.390;18.620;2023-02-28T00:19:08;170.82;;;95.38;;
18114;SDS011;9184;54.390;18.620;2023-02-28T00:19:39;169.43;;;91.13;;
18114;SDS011;9184;54.390;18.620;2023-02-28T00:20:11;163.10;;;84.20;;
18114;SDS011;9184;54.390;18.620;2023-02-28T00:20:43;174.48;;;91.45;;
18114;SDS011;9184;54.390;18.620;2023-02-28T00:21:13;164.33;;;87.40;;
18114;SDS011;9184;54.390;18.620;2023-02-28T00:21:44;179.50;;;90.83;;
18114;SDS011;9184;54.390;18.620;2023-02-28T00:22:15;160.48;;;85.32;;
18114;SDS011;9184;54.390;18.620;2023-02-28T00:22:47;156.57;;;81.77;;
18114;SDS011;9184;54.390;18.620;2023-02-28T00:23:18;167.75;;;81.72;;
18114;SDS011;9184;54.390;18.620;2023-02-28T00:23:48;165.90;;;85.50;;
18114;SDS011;9184;54.390;18.620;2023-02-28T00:24:21;165.43;;;83.75;;
18114;SDS011;9184;54.390;18.620;2023-02-28T00:24:51;155.73;;;79.30;;
18114;SDS011;9184;54.390;18.620;2023-02-28T00:25:22;147.97;;;77.60;;
18114;SDS011;9184;54.390;18.620;2023-02-28T00:25:53;158.88;;;79.68;;
18114;SDS011;9184;54.390;18.620;2023-02-28T00:26:25;159.65;;;81.00;;
18114;SDS011;9184;54.390;18.620;2023-02-28T00:26:55;160.27;;;78.57;;
18114;SDS011;9184;54.390;18.620;2023-02-28T00:27:26;157.30;;;74.63;;
18114;SDS011;9184;54.390;18.620;2023-02-28T00:27:57;153.80;;;76.28;;
18114;SDS011;9184;54.390;18.620;2023-02-28T00:28:28;149.43;;;75.33;;
18114;SDS011;9184;54.390;18.620;2023-02-28T00:28:58;142.93;;;75.03;;
18114;SDS011;9184;54.390;18.620;2023-02-28T00:29:30;150.27;;;75.35;;
18114;SDS011;9184;54.390;18.620;2023-02-28T00:30:00;144.07;;;73.77;;
18114;SDS011;9184;54.390;18.620;2023-02-28T00:30:31;158.80;;;75.43;;
18114;SDS011;9184;54.390;18.620;2023-02-28T00:31:02;144.05;;;73.30;;
18114;SDS011;9184;54.390;18.620;2023-02-28T00:31:33;147.17;;;75.63;;
18114;SDS011;9184;54.390;18.620;2023-02-28T00:32:04;148.53;;;74.67;;
18114;SDS011;9184;54.390;18.620;2023-02-28T00:32:35;139.93;;;72.78;;
18114;SDS011;9184;54.390;18.620;2023-02-28T00:33:06;146.87;;;74.43;;
18114;SDS011;9184;54.390;18.620;2023-02-28T00:33:36;152.37;;;75.67;;
18114;SDS011;9184;54.390;18.620;2023-02-28T00:34:09;145.35;;;71.35;;
18114;SDS011;9184;54.390;18.620;2023-02-28T00:34:40;149.73;;;72.55;;
18114;SDS011;9184;54.390;18.620;2023-02-28T00:35:10;135.23;;;68.70;;
18114;SDS011;9184;54.390;18.620;2023-02-28T00:35:41;139.67;;;71.03;;
18114;SDS011;9184;54.390;18.620;2023-02-28T00:36:13;143.13;;;67.90;;
18114;SDS011;9184;54.390;18.620;2023-02-28T00:36:44;136.07;;;65.20;;
18114;SDS011;9184;54.390;18.620;2023-02-28T00:37:16;143.57;;;69.70;;
18114;SDS011;9184;54.390;18.620;2023-02-28T00:37:47;145.17;;;68.77;;
18114;SDS011;9184;54.390;18.620;2023-02-28T00:38:21;131.68;;;68.57;;
18114;SDS011;9184;54.390;18.620;2023-02-28T00:38:51;140.23;;;67.33;;
18114;SDS011;9184;54.390;18.620;2023-02-28T00:39:23;135.45;;;68.97;;
18114;SDS011;9184;54.390;18.620;2023-02-28T00:39:54;140.87;;;67.87;;
18114;SDS011;9184;54.390;18.620;2023-02-28T00:40:24;144.37;;;69.23;;
18114;SDS011;9184;54.390;18.620;2023-02-28T00:40:56;142.05;;;68.13;;
18114;SDS011;9184;54.390;18.620;2023-02-28T00:41:26;139.80;;;69.43;;
18114;SDS011;9184;54.390;18.620;2023-02-28T00:41:57;137.00;;;67.60;;
18114;SDS011;9184;54.390;18.620;2023-02-28T00:42:28;139.15;;;69.68;;
18114;SDS011;9184;54.390;18.620;2023-02-28T00:42:59;133.90;;;65.53;;
18114;SDS011;9184;54.390;18.620;2023-02-28T00:43:30;140.57;;;69.40;;
18114;SDS011;9184;54.390;18.620;2023-02-28T00:44:01;121.15;;;62.47;;
18114;SDS011;9184;54.390;18.620;2023-02-28T00:44:32;153.00;;;66.70;;
18114;SDS011;9184;54.390;18.620;2023-02-28T00:45:02;129.03;;;65.53;;
18114;SDS011;9184;54.390;18.620;2023-02-28T00:45:35;129.27;;;65.20;;
18114;SDS011;9184;54.390;18.620;2023-02-28T00:46:05;132.30;;;63.87;;
18114;SDS011;9184;54.390;18.620;2023-02-28T00:46:36;133.77;;;64.73;;
18114;SDS011;9184;54.390;18.620;2023-02-28T00:47:06;131.70;;;65.73;;
18114;SDS011;9184;54.390;18.620;2023-02-28T00:47:38;139.63;;;67.93;;
18114;SDS011;9184;54.390;18.620;2023-02-28T00:48:08;138.23;;;66.70;;
18114;SDS011;9184;54.390;18.620;2023-02-28T00:48:39;128.20;;;65.23;;
18114;SDS011;9184;54.390;18.620;2023-02-28T00:49:11;124.95;;;64.60;;
18114;SDS011;9184;54.390;18.620;2023-02-28T00:49:42;129.68;;;62.60;;
18114;SDS011;9184;54.390;18.620;2023-02-28T00:50:12;128.97;;;63.63;;
18114;SDS011;9184;54.390;18.620;2023-02-28T00:50:44;128.10;;;63.20;;
18114;SDS011;9184;54.390;18.620;2023-02-28T00:51:14;128.43;;;61.63;;
18114;SDS011;9184;54.390;18.620;2023-02-28T00:51:45;130.20;;;64.60;;
18114;SDS011;9184;54.390;18.620;2023-02-28T00:52:16;119.30;;;59.97;;
18114;SDS011;9184;54.390;18.620;2023-02-28T00:52:47;131.47;;;59.83;;
18114;SDS011;9184;54.390;18.620;2023-02-28T00:53:18;131.35;;;60.20;;
18114;SDS011;9184;54.390;18.620;2023-02-28T00:53:48;118.97;;;61.17;;
18114;SDS011;9184;54.390;18.620;2023-02-28T00:54:20;125.80;;;59.20;;
18114;SDS011;9184;54.390;18.620;2023-02-28T00:54:50;119.30;;;60.73;;
18114;SDS011;9184;54.390;18.620;2023-02-28T00:55:21;119.73;;;59.63;;
18114;SDS011;9184;54.390;18.620;2023-02-28T00:55:52;124.15;;;61.50;;
18114;SDS011;9184;54.390;18.620;2023-02-28T00:56:23;119.47;;;58.90;;
18114;SDS011;9184;54.390;18.620;2023-02-28T00:56:53;119.23;;;57.80;;
18114;SDS011;9184;54.390;18.620;2023-02-28T00:57:25;115.55;;;57.88;;
18114;SDS011;9184;54.390;18.620;2023-02-28T00:57:56;112.50;;;57.78;;
18114;SDS011;9184;54.390;18.620;2023-02-28T00:58:26;126.10;;;58.77;;
18114;SDS011;9184;54.390;18.620;2023-02-28T00:58:58;122.28;;;58.42;;
18114;SDS011;9184;54.390;18.620;2023-02-28T00:59:28;119.03;;;56.00;;
18114;SDS011;9184;54.390;18.620;2023-02-28T00:59:59;110.00;;;57.83;;
18114;SDS011;9184;54.390;18.620;2023-02-28T01:00:30;102.28;;;53.75;;
18114;SDS011;9184;54.390;18.620;2023-02-28T01:01:01;107.20;;;55.83;;
18114;SDS011;9184;54.390;18.620;2023-02-28T01:01:31;107.83;;;53.03;;
18114;SDS011;9184;54.390;18.620;2023-02-28T01:02:03;101.57;;;52.85;;
18114;SDS011;9184;54.390;18.620;2023-02-28T01:02:33;107.10;;;53.70;;
18114;SDS011;9184;54.390;18.620;2023-02-28T01:03:05;104.47;;;52.47;;
18114;SDS011;9184;54.390;18.620;2023-02-28T01:03:35;107.93;;;52.73;;
18114;SDS011;9184;54.390;18.620;2023-02-28T01:04:06;117.67;;;55.50;;
18114;SDS011;9184;54.390;18.620;2023-02-28T01:04:39;104.53;;;52.42;;
18114;SDS011;9184;54.390;18.620;2023-02-28T01:05:09;101.47;;;51.58;;
18114;SDS011;9184;54.390;18.620;2023-02-28T01:05:40;102.00;;;54.27;;
18114;SDS011;9184;54.390;18.620;2023-02-28T01:06:12;111.20;;;52.50;;
18114;SDS011;9184;54.390;18.620;2023-02-28T01:06:42;113.00;;;54.33;;
18114;SDS011;9184;54.390;18.620;2023-02-28T01:07:13;97.87;;;53.03;;
18114;SDS011;9184;54.390;18.620;2023-02-28T01:07:44;105.47;;;51.08;;
18114;SDS011;9184;54.390;18.620;2023-02-28T01:08:15;103.07;;;54.60;;
18114;SDS011;9184;54.390;18.620;2023-02-28T01:08:45;103.93;;;52.20;;
18114;SDS011;9184;54.390;18.620;2023-02-28T01:09:17;106.18;;;52.72;;
18114;SDS011;9184;54.390;18.620;2023-02-28T01:09:47;103.23;;;49.50;;
18114;SDS011;9184;54.390;18.620;2023-02-28T01:10:18;110.07;;;50.60;;
18114;SDS011;9184;54.390;18.620;2023-02-28T01:10:50;115.05;;;51.13;;
18114;SDS011;9184;54.390;18.620;2023-02-28T01:11:21;111.43;;;53.57;;
18114;SDS011;9184;54.390;18.620;2023-02-28T01:11:51;100.43;;;53.10;;
18114;SDS011;9184;54.390;18.620;2023-02-28T01:12:22;101.17;;;51.07;;
18114;SDS011;9184;54.390;18.620;2023-02-28T01:12:53;99.28;;;50.38;;
18114;SDS011;9184;54.390;18.620;2023-02-28T01:13:24;96.97;;;50.00;;
18114;SDS011;9184;54.390;18.620;2023-02-28T01:13:55;95.78;;;49.17;;
18114;SDS011;9184;54.390;18.620;2023-02-28T01:14:26;94.87;;;50.23;;
18114;SDS011;9184;54.390;18.620;2023-02-28T01:14:57;103.15;;;50.42;;
18114;SDS011;9184;54.390;18.620;2023-02-28T01:15:28;97.83;;;50.13;;
18114;SDS011;9184;54.390;18.620;2023-02-28T01:15:58;111.83;;;52.77;;
18114;SDS011;9184;54.390;18.620;2023-02-28T01:16:30;91.93;;;48.83;;
18114;SDS011;9184;54.390;18.620;2023-02-28T01:17:00;87.83;;;48.73;;
18114;SDS011;9184;54.390;18.620;2023-02-28T01:17:31;108.17;;;50.60;;
18114;SDS011;9184;54.390;18.620;2023-02-28T01:18:02;93.57;;;48.08;;
18114;SDS011;9184;54.390;18.620;2023-02-28T01:18:33;96.23;;;48.67;;
18114;SDS011;9184;54.390;18.620;2023-02-28T01:19:03;93.63;;;48.27;;
18114;SDS011;9184;54.390;18.620;2023-02-28T01:19:35;94.68;;;48.30;;
18114;SDS011;9184;54.390;18.620;2023-02-28T01:20:08;99.33;;;47.57;;
18114;SDS011;9184;54.390;18.620;2023-02-28T01:20:40;89.68;;;46.92;;
18114;SDS011;9184;54.390;18.620;2023-02-28T01:21:12;94.78;;;46.60;;
18114;SDS011;9184;54.390;18.620;2023-02-28T01:21:43;85.32;;;46.47;;
18114;SDS011;9184;54.390;18.620;2023-02-28T01:22:13;101.13;;;49.63;;
18114;SDS011;9184;54.390;18.620;2023-02-28T01:22:45;97.50;;;49.13;;
18114;SDS011;9184;54.390;18.620;2023-02-28T01:23:15;92.07;;;48.20;;
18114;SDS011;9184;54.390;18.620;2023-02-28T01:23:46;99.57;;;47.73;;
18114;SDS011;9184;54.390;18.620;2023-02-28T01:24:17;93.50;;;46.15;;
18114;SDS011;9184;54.390;18.620;2023-02-28T01:24:48;89.10;;;45.67;;
18114;SDS011;9184;54.390;18.620;2023-02-28T01:25:18;94.87;;;45.37;;
18114;SDS011;9184;54.390;18.620;2023-02-28T01:25:50;88.72;;;45.35;;
18114;SDS011;9184;54.390;18.620;2023-02-28T01:26:21;94.17;;;45.47;;
18114;SDS011;9184;54.390;18.620;2023-02-28T01:26:51;97.50;;;47.83;;
18114;SDS011;9184;54.390;18.620;2023-02-28T01:27:23;100.65;;;46.95;;
18114;SDS011;9184;54.390;18.620;2023-02-28T01:27:53;83.03;;;44.03;;
18114;SDS011;9184;54.390;18.620;2023-02-28T01:28:24;86.87;;;45.77;;
18114;SDS011;9184;54.390;18.620;2023-02-28T01:28:55;84.43;;;46.83;;
18114;SDS011;9184;54.390;18.620;2023-02-28T01:29:26;96.83;;;48.10;;
18114;SDS011;9184;54.390;18.620;2023-02-28T01:29:56;83.57;;;44.77;;
18114;SDS011;9184;54.390;18.620;2023-02-28T01:30:28;88.25;;;45.55;;
18114;SDS011;9184;54.390;18.620;2023-02-28T01:30:59;98.63;;;47.87;;
18114;SDS011;9184;54.390;18.620;2023-02-28T01:31:29;89.13;;;45.40;;
18114;SDS011;9184;54.390;18.620;2023-02-28T01:32:00;93.80;;;45.75;;
18114;SDS011;9184;54.390;18.620;2023-02-28T01:32:32;91.20;;;47.92;;
18114;SDS011;9184;54.390;18.620;2023-02-28T01:33:03;90.03;;;44.83;;
18114;SDS011;9184;54.390;18.620;2023-02-28T01:33:33;92.20;;;46.20;;
18114;SDS011;9184;54.390;18.620;2023-02-28T01:34:05;92.85;;;45.65;;
18114;SDS011;9184;54.390;18.620;2023-02-28T01:34:35;95.13;;;47.20;;
18114;SDS011;9184;54.390;18.620;2023-02-28T01:35:07;89.30;;;46.00;;
18114;SDS011;9184;54.390;18.620;2023-02-28T01:35:39;92.30;;;45.83;;
18114;SDS011;9184;54.390;18.620;2023-02-28T01:36:10;89.97;;;45.40;;
18114;SDS011;9184;54.390;18.620;2023-02-28T01:36:41;93.35;;;45.42;;
18114;SDS011;9184;54.390;18.620;2023-02-28T01:37:15;92.93;;;46.13;;
18114;SDS011;9184;54.390;18.620;2023-02-28T01:37:45;101.07;;;47.53;;
18114;SDS011;9184;54.390;18.620;2023-02-28T01:38:16;86.50;;;44.30;;
18114;SDS011;9184;54.390;18.620;2023-02-28T01:38:47;90.78;;;46.50;;
18114;SDS011;9184;54.390;18.620;2023-02-28T01:39:18;92.33;;;46.40;;
18114;SDS011;9184;54.390;18.620;2023-02-28T01:39:49;90.47;;;46.33;;
18114;SDS011;9184;54.390;18.620;2023-02-28T01:40:20;98.70;;;46.80;;
18114;SDS011;9184;54.390;18.620;2023-02-28T01:40:51;89.13;;;45.67;;
18114;SDS011;9184;54.390;18.620;2023-02-28T01:41:22;94.77;;;46.27;;
18114;SDS011;9184;54.390;18.620;2023-02-28T01:41:54;106.00;;;48.28;;
18114;SDS011;9184;54.390;18.620;2023-02-28T01:42:25;96.97;;;47.57;;
18114;SDS011;9184;54.390;18.620;2023-02-28T01:42:55;90.57;;;46.73;;
18114;SDS011;9184;54.390;18.620;2023-02-28T01:43:28;102.63;;;48.58;;
18114;SDS011;9184;54.390;18.620;2023-02-28T01:43:59;97.18;;;47.97;;
18114;SDS011;9184;54.390;18.620;2023-02-28T01:45:23;99.70;;;47.53;;
18114;SDS011;9184;54.390;18.620;2023-02-28T01:45:56;94.60;;;46.55;;
18114;SDS011;9184;54.390;18.620;2023-02-28T01:46:27;87.20;;;45.20;;
18114;SDS011;9184;54.390;18.620;2023-02-28T01:46:58;88.88;;;45.42;;
18114;SDS011;9184;54.390;18.620;2023-02-28T01:47:30;97.88;;;46.92;;
18114;SDS011;9184;54.390;18.620;2023-02-28T01:48:02;102.90;;;47.97;;
18114;SDS011;9184;54.390;18.620;2023-02-28T01:48:35;92.97;;;47.13;;
18114;SDS011;9184;54.390;18.620;2023-02-28T01:49:07;93.72;;;46.47;;
18114;SDS011;9184;54.390;18.620;2023-02-28T01:49:39;97.00;;;47.97;;
18114;SDS011;9184;54.390;18.620;2023-02-28T01:50:12;87.63;;;45.70;;
18114;SDS011;9184;54.390;18.620;2023-02-28T01:50:45;97.72;;;46.22;;
18114;SDS011;9184;54.390;18.620;2023-02-28T01:51:17;97.43;;;48.45;;
18114;SDS011;9184;54.390;18.620;2023-02-28T01:51:49;94.75;;;46.45;;
18114;SDS011;9184;54.390;18.620;2023-02-28T01:52:21;90.07;;;45.88;;
18114;SDS011;9184;54.390;18.620;2023-02-28T01:52:53;95.93;;;47.40;;
18114;SDS011;9184;54.390;18.620;2023-02-28T01:53:25;89.65;;;44.85;;
18114;SDS011;9184;54.390;18.620;2023-02-28T01:54:00;94.47;;;45.83;;
18114;SDS011;9184;54.390;18.620;2023-02-28T01:54:32;87.00;;;44.70;;
18114;SDS011;9184;54.390;18.620;2023-02-28T01:55:04;87.60;;;45.60;;
18114;SDS011;9184;54.390;18.620;2023-02-28T01:55:37;92.95;;;46.10;;
18114;SDS011;9184;54.390;18.620;2023-02-28T01:56:08;88.82;;;45.75;;
18114;SDS011;9184;54.390;18.620;2023-02-28T01:56:43;94.53;;;47.83;;
18114;SDS011;9184;54.390;18.620;2023-02-28T01:57:16;91.07;;;47.33;;
18114;SDS011;9184;54.390;18.620;2023-02-28T01:57:48;101.47;;;47.25;;
18114;SDS011;9184;54.390;18.620;2023-02-28T01:58:20;91.15;;;45.13;;
18114;SDS011;9184;54.390;18.620;2023-02-28T01:58:52;90.82;;;43.95;;
18114;SDS011;9184;54.390;18.620;2023-02-28T01:59:24;84.75;;;44.90;;
18114;SDS011;9184;54.390;18.620;2023-02-28T01:59:57;89.03;;;45.40;;
18114;SDS011;9184;54.390;18.620;2023-02-28T02:00:29;89.18;;;45.28;;
18114;SDS011;9184;54.390;18.620;2023-02-28T02:01:01;76.65;;;42.03;;
18114;SDS011;9184;54.390;18.620;2023-02-28T02:01:33;92.53;;;44.85;;
18114;SDS011;9184;54.390;18.620;2023-02-28T02:02:03;87.77;;;44.53;;
18114;SDS011;9184;54.390;18.620;2023-02-28T02:02:35;95.90;;;45.75;;
18114;SDS011;9184;54.390;18.620;2023-02-28T02:03:07;93.80;;;44.67;;
18114;SDS011;9184;54.390;18.620;2023-02-28T02:03:38;88.72;;;45.70;;
18114;SDS011;9184;54.390;18.620;2023-02-28T02:04:10;95.05;;;46.17;;
18114;SDS011;9184;54.390;18.620;2023-02-28T02:04:45;92.07;;;46.17;;
18114;SDS011;9184;54.390;18.620;2023-02-28T02:05:20;91.47;;;45.47;;
18114;SDS011;9184;54.390;18.620;2023-02-28T02:05:52;102.07;;;47.10;;
18114;SDS011;9184;54.390;18.620;2023-02-28T02:06:23;91.17;;;46.03;;
18114;SDS011;9184;54.390;18.620;2023-02-28T02:06:55;92.05;;;46.72;;
18114;SDS011;9184;54.390;18.620;2023-02-28T02:07:26;88.97;;;45.28;;
18114;SDS011;9184;54.390;18.620;2023-02-28T02:08:01;93.07;;;45.80;;
18114;SDS011;9184;54.390;18.620;2023-02-28T02:08:33;85.75;;;45.58;;
18114;SDS011;9184;54.390;18.620;2023-02-28T02:09:04;88.80;;;45.88;;
18114;SDS011;9184;54.390;18.620;2023-02-28T02:09:36;92.70;;;45.50;;
18114;SDS011;9184;54.390;18.620;2023-02-28T02:10:10;97.00;;;46.33;;
18114;SDS011;9184;54.390;18.620;2023-02-28T02:10:45;88.75;;;45.42;;
18114;SDS011;9184;54.390;18.620;2023-02-28T02:11:18;100.30;;;46.03;;
18114;SDS011;9184;54.390;18.620;2023-02-28T02:11:49;93.32;;;45.38;;
18114;SDS011;9184;54.390;18.620;2023-02-28T02:12:23;88.63;;;45.45;;
18114;SDS011;9184;54.390;18.620;2023-02-28T02:13:00;91.25;;;45.80;;
18114;SDS011;9184;54.390;18.620;2023-02-28T02:13:46;97.10;;;44.58;;
18114;SDS011;9184;54.390;18.620;2023-02-28T02:14:26;84.60;;;42.95;;
18114;SDS011;9184;54.390;18.620;2023-02-28T02:15:03;90.50;;;43.63;;
18114;SDS011;9184;54.390;18.620;2023-02-28T02:15:37;94.53;;;44.08;;
18114;SDS011;9184;54.390;18.620;2023-02-28T02:16:14;86.97;;;44.83;;
18114;SDS011;9184;54.390;18.620;2023-02-28T02:16:53;88.97;;;43.72;;
18114;SDS011;9184;54.390;18.620;2023-02-28T02:17:27;82.68;;;43.92;;
18114;SDS011;9184;54.390;18.620;2023-02-28T02:18:01;86.53;;;43.72;;
18114;SDS011;9184;54.390;18.620;2023-02-28T02:18:34;89.53;;;43.03;;
18114;SDS011;9184;54.390;18.620;2023-02-28T02:19:13;88.22;;;42.53;;
18114;SDS011;9184;54.390;18.620;2023-02-28T02:21:03;83.30;;;41.70;;
18114;SDS011;9184;54.390;18.620;2023-02-28T02:21:53;86.65;;;40.50;;
18114;SDS011;9184;54.390;18.620;2023-02-28T02:24:22;76.68;;;39.15;;
18114;SDS011;9184;54.390;18.620;2023-02-28T02:25:03;77.97;;;40.75;;
18114;SDS011;9184;54.390;18.620;2023-02-28T02:25:39;86.38;;;42.40;;
18114;SDS011;9184;54.390;18.620;2023-02-28T02:26:23;90.85;;;41.38;;
18114;SDS011;9184;54.390;18.620;2023-02-28T02:27:59;78.05;;;39.65;;
18114;SDS011;9184;54.390;18.620;2023-02-28T02:28:40;82.25;;;42.65;;
18114;SDS011;9184;54.390;18.620;2023-02-28T02:29:23;82.70;;;40.97;;
18114;SDS011;9184;54.390;18.620;2023-02-28T02:30:58;93.13;;;45.10;;
18114;SDS011;9184;54.390;18.620;2023-02-28T02:31:44;94.40;;;46.90;;
18114;SDS011;9184;54.390;18.620;2023-02-28T02:32:28;83.10;;;43.22;;
18114;SDS011;9184;54.390;18.620;2023-02-28T02:33:13;90.75;;;46.85;;
18114;SDS011;9184;54.390;18.620;2023-02-28T02:34:50;88.45;;;46.50;;
18114;SDS011;9184;54.390;18.620;2023-02-28T02:35:23;98.53;;;48.13;;
18114;SDS011;9184;54.390;18.620;2023-02-28T02:35:56;101.20;;;47.42;;
18114;SDS011;9184;54.390;18.620;2023-02-28T02:36:27;89.23;;;45.77;;
18114;SDS011;9184;54.390;18.620;2023-02-28T02:37:00;90.68;;;45.97;;
18114;SDS011;9184;54.390;18.620;2023-02-28T02:37:35;101.75;;;48.42;;
18114;SDS011;9184;54.390;18.620;2023-02-28T02:38:08;96.35;;;47.60;;
18114;SDS011;9184;54.390;18.620;2023-02-28T02:38:42;90.97;;;47.05;;
18114;SDS011;9184;54.390;18.620;2023-02-28T02:39:16;92.40;;;47.58;;
18114;SDS011;9184;54.390;18.620;2023-02-28T02:39:50;87.40;;;47.10;;
18114;SDS011;9184;54.390;18.620;2023-02-28T02:40:23;90.25;;;45.72;;
18114;SDS011;9184;54.390;18.620;2023-02-28T02:40:56;94.72;;;46.10;;
18114;SDS011;9184;54.390;18.620;2023-02-28T02:41:31;101.10;;;47.70;;
18114;SDS011;9184;54.390;18.620;2023-02-28T02:42:04;96.75;;;48.00;;
18114;SDS011;9184;54.390;18.620;2023-02-28T02:42:41;91.28;;;46.42;;
18114;SDS011;9184;54.390;18.620;2023-02-28T02:43:16;93.93;;;46.92;;
18114;SDS011;9184;54.390;18.620;2023-02-28T02:43:50;102.07;;;48.65;;
18114;SDS011;9184;54.390;18.620;2023-02-28T02:44:22;95.35;;;47.38;;
18114;SDS011;9184;54.390;18.620;2023-02-28T02:44:56;94.38;;;47.70;;
18114;SDS011;9184;54.390;18.620;2023-02-28T02:45:29;90.88;;;47.33;;
18114;SDS011;9184;54.390;18.620;2023-02-28T02:46:06;95.05;;;48.47;;
18114;SDS011;9184;54.390;18.620;2023-02-28T02:46:38;89.35;;;47.85;;
18114;SDS011;9184;54.390;18.620;2023-02-28T02:47:10;94.68;;;49.70;;
18114;SDS011;9184;54.390;18.620;2023-02-28T02:47:43;97.00;;;48.67;;
18114;SDS011;9184;54.390;18.620;2023-02-28T02:48:15;87.18;;;45.30;;
18114;SDS011;9184;54.390;18.620;2023-02-28T02:48:47;87.60;;;48.35;;
18114;SDS011;9184;54.390;18.620;2023-02-28T02:49:20;102.35;;;48.05;;
18114;SDS011;9184;54.390;18.620;2023-02-28T02:49:53;88.93;;;46.65;;
18114;SDS011;9184;54.390;18.620;2023-02-28T02:50:26;92.05;;;46.13;;
18114;SDS011;9184;54.390;18.620;2023-02-28T02:51:01;96.10;;;49.20;;
18114;SDS011;9184;54.390;18.620;2023-02-28T02:51:31;94.47;;;47.65;;
18114;SDS011;9184;54.390;18.620;2023-02-28T02:52:03;91.22;;;46.25;;
18114;SDS011;9184;54.390;18.620;2023-02-28T02:52:37;101.82;;;47.80;;
18114;SDS011;9184;54.390;18.620;2023-02-28T02:53:09;97.10;;;47.63;;
18114;SDS011;9184;54.390;18.620;2023-02-28T02:53:41;100.38;;;46.72;;
18114;SDS011;9184;54.390;18.620;2023-02-28T02:54:15;92.97;;;46.78;;
18114;SDS011;9184;54.390;18.620;2023-02-28T02:54:47;94.07;;;46.83;;
18114;SDS011;9184;54.390;18.620;2023-02-28T02:55:19;87.28;;;45.63;;
18114;SDS011;9184;54.390;18.620;2023-02-28T02:55:54;91.00;;;45.70;;
18114;SDS011;9184;54.390;18.620;2023-02-28T02:56:25;91.30;;;45.03;;
18114;SDS011;9184;54.390;18.620;2023-02-28T02:56:59;91.53;;;45.78;;
18114;SDS011;9184;54.390;18.620;2023-02-28T02:57:32;92.90;;;45.75;;
18114;SDS011;9184;54.390;18.620;2023-02-28T02:58:05;100.80;;;45.08;;
18114;SDS011;9184;54.390;18.620;2023-02-28T02:58:38;84.50;;;46.42;;
18114;SDS011;9184;54.390;18.620;2023-02-28T02:59:13;85.10;;;44.58;;
18114;SDS011;9184;54.390;18.620;2023-02-28T02:59:51;87.20;;;44.97;;
18114;SDS011;9184;54.390;18.620;2023-02-28T03:00:24;96.30;;;46.28;;
18114;SDS011;9184;54.390;18.620;2023-02-28T03:00:57;91.13;;;43.90;;
18114;SDS011;9184;54.390;18.620;2023-02-28T03:01:29;84.90;;;45.03;;
18114;SDS011;9184;54.390;18.620;2023-02-28T03:02:02;88.75;;;46.75;;
18114;SDS011;9184;54.390;18.620;2023-02-28T03:02:34;95.82;;;46.08;;
18114;SDS011;9184;54.390;18.620;2023-02-28T03:03:07;89.90;;;45.35;;
18114;SDS011;9184;54.390;18.620;2023-02-28T03:03:39;88.60;;;46.20;;
18114;SDS011;9184;54.390;18.620;2023-02-28T03:04:11;85.30;;;45.43;;
18114;SDS011;9184;54.390;18.620;2023-02-28T03:04:43;94.32;;;46.72;;
18114;SDS011;9184;54.390;18.620;2023-02-28T03:05:18;92.90;;;46.15;;
18114;SDS011;9184;54.390;18.620;2023-02-28T03:05:49;91.72;;;45.05;;
18114;SDS011;9184;54.390;18.620;2023-02-28T03:06:20;90.63;;;45.65;;
18114;SDS011;9184;54.390;18.620;2023-02-28T03:06:51;85.82;;;44.90;;
18114;SDS011;9184;54.390;18.620;2023-02-28T03:07:24;87.03;;;44.17;;
18114;SDS011;9184;54.390;18.620;2023-02-28T03:07:55;89.83;;;46.57;;
18114;SDS011;9184;54.390;18.620;2023-02-28T03:08:27;89.55;;;46.15;;
18114;SDS011;9184;54.390;18.620;2023-02-28T03:08:58;94.93;;;46.97;;
18114;SDS011;9184;54.390;18.620;2023-02-28T03:09:32;92.20;;;43.97;;
18114;SDS011;9184;54.390;18.620;2023-02-28T03:10:50;88.00;;;42.45;;
18114;SDS011;9184;54.390;18.620;2023-02-28T03:11:20;98.38;;;45.22;;
18114;SDS011;9184;54.390;18.620;2023-02-28T03:11:51;103.87;;;47.43;;
18114;SDS011;9184;54.390;18.620;2023-02-28T03:12:23;84.80;;;43.90;;
18114;SDS011;9184;54.390;18.620;2023-02-28T03:13:00;96.15;;;45.75;;
18114;SDS011;9184;54.390;18.620;2023-02-28T03:13:37;92.22;;;45.78;;
18114;SDS011;9184;54.390;18.620;2023-02-28T03:14:20;85.28;;;42.33;;
18114;SDS011;9184;54.390;18.620;2023-02-28T03:14:56;80.18;;;41.10;;
18114;SDS011;9184;54.390;18.620;2023-02-28T03:15:36;85.95;;;43.22;;